sensor_id;sensor_type;location;lat;lon;timestamp;P1;durP1;ratioP1;P2;durP2;ratioP2
74363;SDS011;62797;49.740;10.154;2023-02-10T00:00:11;97.00;;;39.78;;
74363;SDS011;62797;49.740;10.154;2023-02-10T00:02:36;113.95;;;44.33;;
74363;SDS011;62797;49.740;10.154;2023-02-10T00:05:02;108.60;;;45.13;;
74363;SDS011;62797;49.740;10.154;2023-02-10T00:07:28;90.57;;;40.78;;
74363;SDS011;62797;49.740;10.154;2023-02-10T00:09:53;132.38;;;46.55;;
74363;SDS011;62797;49.740;10.154;2023-02-10T00:12:19;104.68;;;43.42;;
74363;SDS011;62797;49.740;10.154;2023-02-10T00:14:44;92.30;;;40.90;;
74363;SDS011;62797;49.740;10.154;2023-02-10T00:17:10;106.35;;;41.90;;
74363;SDS011;62797;49.740;10.154;2023-02-10T00:19:38;95.43;;;40.55;;
74363;SDS011;62797;49.740;10.154;2023-02-10T00:22:03;102.53;;;40.35;;
74363;SDS011;62797;49.740;10.154;2023-02-10T00:24:29;96.03;;;39.47;;
74363;SDS011;62797;49.740;10.154;2023-02-10T00:26:54;102.93;;;41.20;;
74363;SDS011;62797;49.740;10.154;2023-02-10T00:29:20;99.40;;;39.75;;
74363;SDS011;62797;49.740;10.154;2023-02-10T00:31:45;108.45;;;41.20;;
74363;SDS011;62797;49.740;10.154;2023-02-10T00:34:12;102.25;;;39.33;;
74363;SDS011;62797;49.740;10.154;2023-02-10T00:36:39;94.22;;;39.15;;
74363;SDS011;62797;49.740;10.154;2023-02-10T00:39:04;99.60;;;40.80;;
74363;SDS011;62797;49.740;10.154;2023-02-10T00:41:30;91.75;;;41.67;;
74363;SDS011;62797;49.740;10.154;2023-02-10T00:43:56;100.53;;;40.25;;
74363;SDS011;62797;49.740;10.154;2023-02-10T00:46:21;99.20;;;37.88;;
74363;SDS011;62797;49.740;10.154;2023-02-10T00:48:47;93.28;;;37.88;;
74363;SDS011;62797;49.740;10.154;2023-02-10T00:51:14;90.00;;;35.70;;
74363;SDS011;62797;49.740;10.154;2023-02-10T00:53:40;99.15;;;38.65;;
74363;SDS011;62797;49.740;10.154;2023-02-10T00:56:06;101.55;;;39.83;;
74363;SDS011;62797;49.740;10.154;2023-02-10T00:58:32;101.63;;;40.00;;
74363;SDS011;62797;49.740;10.154;2023-02-10T01:00:58;97.38;;;39.45;;
74363;SDS011;62797;49.740;10.154;2023-02-10T01:03:24;115.00;;;43.45;;
74363;SDS011;62797;49.740;10.154;2023-02-10T01:05:49;107.18;;;38.65;;
74363;SDS011;62797;49.740;10.154;2023-02-10T01:10:41;101.18;;;35.92;;
74363;SDS011;62797;49.740;10.154;2023-02-10T01:13:08;102.55;;;40.78;;
74363;SDS011;62797;49.740;10.154;2023-02-10T01:15:35;99.20;;;37.80;;
74363;SDS011;62797;49.740;10.154;2023-02-10T01:18:00;110.22;;;39.03;;
74363;SDS011;62797;49.740;10.154;2023-02-10T01:20:26;102.95;;;40.47;;
74363;SDS011;62797;49.740;10.154;2023-02-10T01:22:52;93.07;;;39.83;;
74363;SDS011;62797;49.740;10.154;2023-02-10T01:25:17;94.93;;;37.88;;
74363;SDS011;62797;49.740;10.154;2023-02-10T01:27:43;95.13;;;38.05;;
74363;SDS011;62797;49.740;10.154;2023-02-10T01:30:09;97.32;;;39.70;;
74363;SDS011;62797;49.740;10.154;2023-02-10T01:32:37;97.63;;;40.05;;
74363;SDS011;62797;49.740;10.154;2023-02-10T01:35:03;102.65;;;39.17;;
74363;SDS011;62797;49.740;10.154;2023-02-10T01:37:29;106.25;;;39.35;;
74363;SDS011;62797;49.740;10.154;2023-02-10T01:39:55;94.97;;;37.45;;
74363;SDS011;62797;49.740;10.154;2023-02-10T01:42:20;113.85;;;39.28;;
74363;SDS011;62797;49.740;10.154;2023-02-10T01:47:11;116.50;;;45.05;;
74363;SDS011;62797;49.740;10.154;2023-02-10T01:49:39;95.35;;;35.97;;
74363;SDS011;62797;49.740;10.154;2023-02-10T01:52:18;101.22;;;40.53;;
74363;SDS011;62797;49.740;10.154;2023-02-10T01:54:49;100.32;;;41.05;;
74363;SDS011;62797;49.740;10.154;2023-02-10T01:57:20;102.47;;;36.55;;
74363;SDS011;62797;49.740;10.154;2023-02-10T01:59:46;101.90;;;40.80;;
74363;SDS011;62797;49.740;10.154;2023-02-10T02:02:13;93.82;;;38.58;;
74363;SDS011;62797;49.740;10.154;2023-02-10T02:04:49;91.80;;;37.17;;
74363;SDS011;62797;49.740;10.154;2023-02-10T02:07:17;102.70;;;38.10;;
74363;SDS011;62797;49.740;10.154;2023-02-10T02:09:44;99.65;;;41.30;;
74363;SDS011;62797;49.740;10.154;2023-02-10T02:15:00;100.93;;;38.33;;
74363;SDS011;62797;49.740;10.154;2023-02-10T02:17:40;106.28;;;40.42;;
74363;SDS011;62797;49.740;10.154;2023-02-10T02:23:12;98.15;;;38.80;;
74363;SDS011;62797;49.740;10.154;2023-02-10T02:26:04;88.13;;;37.45;;
74363;SDS011;62797;49.740;10.154;2023-02-10T02:37:04;97.43;;;38.17;;
74363;SDS011;62797;49.740;10.154;2023-02-10T02:39:37;91.20;;;36.42;;
74363;SDS011;62797;49.740;10.154;2023-02-10T02:42:21;95.15;;;36.88;;
74363;SDS011;62797;49.740;10.154;2023-02-10T02:53:12;90.35;;;36.90;;
74363;SDS011;62797;49.740;10.154;2023-02-10T03:01:26;95.78;;;35.17;;
74363;SDS011;62797;49.740;10.154;2023-02-10T03:03:57;103.25;;;38.33;;
74363;SDS011;62797;49.740;10.154;2023-02-10T03:06:23;98.35;;;38.75;;
74363;SDS011;62797;49.740;10.154;2023-02-10T03:08:49;95.13;;;41.70;;
74363;SDS011;62797;49.740;10.154;2023-02-10T03:11:14;107.28;;;40.72;;
74363;SDS011;62797;49.740;10.154;2023-02-10T03:13:40;106.78;;;40.75;;
74363;SDS011;62797;49.740;10.154;2023-02-10T03:16:06;112.25;;;42.55;;
74363;SDS011;62797;49.740;10.154;2023-02-10T03:18:31;115.78;;;41.97;;
74363;SDS011;62797;49.740;10.154;2023-02-10T03:20:57;114.35;;;44.30;;
74363;SDS011;62797;49.740;10.154;2023-02-10T03:23:23;115.20;;;47.05;;
74363;SDS011;62797;49.740;10.154;2023-02-10T03:25:48;97.70;;;39.78;;
74363;SDS011;62797;49.740;10.154;2023-02-10T03:28:14;97.53;;;36.78;;
74363;SDS011;62797;49.740;10.154;2023-02-10T03:30:39;98.35;;;38.92;;
74363;SDS011;62797;49.740;10.154;2023-02-10T03:33:11;105.00;;;42.08;;
74363;SDS011;62797;49.740;10.154;2023-02-10T03:35:37;112.88;;;40.47;;
74363;SDS011;62797;49.740;10.154;2023-02-10T03:38:04;100.47;;;39.95;;
74363;SDS011;62797;49.740;10.154;2023-02-10T03:40:30;97.47;;;38.20;;
74363;SDS011;62797;49.740;10.154;2023-02-10T03:42:55;92.40;;;35.13;;
74363;SDS011;62797;49.740;10.154;2023-02-10T03:45:21;92.47;;;35.47;;
74363;SDS011;62797;49.740;10.154;2023-02-10T03:47:46;87.32;;;35.92;;
74363;SDS011;62797;49.740;10.154;2023-02-10T03:50:12;91.78;;;36.80;;
74363;SDS011;62797;49.740;10.154;2023-02-10T03:52:38;98.57;;;38.28;;
74363;SDS011;62797;49.740;10.154;2023-02-10T03:55:03;95.65;;;39.10;;
74363;SDS011;62797;49.740;10.154;2023-02-10T03:57:29;98.45;;;38.30;;
74363;SDS011;62797;49.740;10.154;2023-02-10T03:59:55;99.15;;;39.67;;
74363;SDS011;62797;49.740;10.154;2023-02-10T04:02:20;91.50;;;35.80;;
74363;SDS011;62797;49.740;10.154;2023-02-10T04:04:46;101.57;;;38.88;;
74363;SDS011;62797;49.740;10.154;2023-02-10T04:07:11;90.65;;;35.35;;
74363;SDS011;62797;49.740;10.154;2023-02-10T04:09:37;86.90;;;36.22;;
74363;SDS011;62797;49.740;10.154;2023-02-10T04:12:02;97.53;;;38.50;;
74363;SDS011;62797;49.740;10.154;2023-02-10T04:14:28;111.82;;;39.72;;
74363;SDS011;62797;49.740;10.154;2023-02-10T04:16:53;95.68;;;35.20;;
74363;SDS011;62797;49.740;10.154;2023-02-10T04:19:19;107.22;;;40.15;;
74363;SDS011;62797;49.740;10.154;2023-02-10T04:21:45;98.13;;;37.95;;
74363;SDS011;62797;49.740;10.154;2023-02-10T04:24:10;93.03;;;33.83;;
74363;SDS011;62797;49.740;10.154;2023-02-10T04:26:36;89.35;;;33.92;;
74363;SDS011;62797;49.740;10.154;2023-02-10T04:29:01;98.32;;;38.00;;
74363;SDS011;62797;49.740;10.154;2023-02-10T04:31:27;91.22;;;35.38;;
74363;SDS011;62797;49.740;10.154;2023-02-10T04:33:53;85.20;;;34.53;;
74363;SDS011;62797;49.740;10.154;2023-02-10T04:36:18;98.78;;;37.80;;
74363;SDS011;62797;49.740;10.154;2023-02-10T04:38:44;95.45;;;35.58;;
74363;SDS011;62797;49.740;10.154;2023-02-10T04:41:09;91.75;;;35.45;;
74363;SDS011;62797;49.740;10.154;2023-02-10T04:43:35;87.53;;;37.22;;
74363;SDS011;62797;49.740;10.154;2023-02-10T04:46:00;91.28;;;36.35;;
74363;SDS011;62797;49.740;10.154;2023-02-10T04:48:27;100.50;;;39.80;;
74363;SDS011;62797;49.740;10.154;2023-02-10T04:50:53;101.28;;;40.30;;
74363;SDS011;62797;49.740;10.154;2023-02-10T04:53:19;96.95;;;38.67;;
74363;SDS011;62797;49.740;10.154;2023-02-10T04:55:44;94.50;;;39.38;;
74363;SDS011;62797;49.740;10.154;2023-02-10T04:58:10;95.82;;;38.65;;
74363;SDS011;62797;49.740;10.154;2023-02-10T05:00:35;105.80;;;38.95;;
74363;SDS011;62797;49.740;10.154;2023-02-10T05:03:01;108.35;;;41.35;;
74363;SDS011;62797;49.740;10.154;2023-02-10T05:05:26;89.47;;;34.15;;
74363;SDS011;62797;49.740;10.154;2023-02-10T05:07:52;91.28;;;39.50;;
74363;SDS011;62797;49.740;10.154;2023-02-10T05:10:18;114.38;;;40.45;;
74363;SDS011;62797;49.740;10.154;2023-02-10T05:12:43;101.72;;;41.03;;
74363;SDS011;62797;49.740;10.154;2023-02-10T05:15:09;113.70;;;42.03;;
74363;SDS011;62797;49.740;10.154;2023-02-10T05:17:37;109.82;;;39.67;;
74363;SDS011;62797;49.740;10.154;2023-02-10T05:20:03;90.13;;;36.92;;
74363;SDS011;62797;49.740;10.154;2023-02-10T05:22:29;103.30;;;37.40;;
74363;SDS011;62797;49.740;10.154;2023-02-10T05:24:55;114.78;;;39.00;;
74363;SDS011;62797;49.740;10.154;2023-02-10T05:27:22;124.50;;;45.97;;
74363;SDS011;62797;49.740;10.154;2023-02-10T05:29:48;114.85;;;44.10;;
74363;SDS011;62797;49.740;10.154;2023-02-10T05:32:14;136.45;;;50.85;;
74363;SDS011;62797;49.740;10.154;2023-02-10T05:34:39;132.60;;;44.80;;
74363;SDS011;62797;49.740;10.154;2023-02-10T05:37:05;151.85;;;50.75;;
74363;SDS011;62797;49.740;10.154;2023-02-10T05:39:30;170.07;;;57.22;;
74363;SDS011;62797;49.740;10.154;2023-02-10T05:41:56;161.90;;;53.95;;
74363;SDS011;62797;49.740;10.154;2023-02-10T05:44:24;171.40;;;54.63;;
74363;SDS011;62797;49.740;10.154;2023-02-10T05:46:51;186.07;;;56.25;;
74363;SDS011;62797;49.740;10.154;2023-02-10T05:49:17;164.30;;;56.05;;
74363;SDS011;62797;49.740;10.154;2023-02-10T05:54:09;129.40;;;44.75;;
74363;SDS011;62797;49.740;10.154;2023-02-10T05:56:34;122.32;;;43.17;;
74363;SDS011;62797;49.740;10.154;2023-02-10T05:59:00;113.65;;;42.38;;
74363;SDS011;62797;49.740;10.154;2023-02-10T06:01:26;129.43;;;45.78;;
74363;SDS011;62797;49.740;10.154;2023-02-10T06:03:52;122.90;;;44.35;;
74363;SDS011;62797;49.740;10.154;2023-02-10T06:06:17;158.02;;;52.38;;
74363;SDS011;62797;49.740;10.154;2023-02-10T06:08:43;128.63;;;43.03;;
74363;SDS011;62797;49.740;10.154;2023-02-10T06:11:08;108.90;;;39.38;;
74363;SDS011;62797;49.740;10.154;2023-02-10T06:13:34;177.45;;;65.75;;
74363;SDS011;62797;49.740;10.154;2023-02-10T06:18:29;115.75;;;42.25;;
74363;SDS011;62797;49.740;10.154;2023-02-10T06:20:55;107.85;;;43.78;;
74363;SDS011;62797;49.740;10.154;2023-02-10T06:23:21;111.55;;;42.80;;
74363;SDS011;62797;49.740;10.154;2023-02-10T06:28:13;113.55;;;40.40;;
74363;SDS011;62797;49.740;10.154;2023-02-10T06:30:39;109.18;;;40.63;;
74363;SDS011;62797;49.740;10.154;2023-02-10T06:33:05;115.25;;;39.63;;
74363;SDS011;62797;49.740;10.154;2023-02-10T06:35:31;109.38;;;44.40;;
74363;SDS011;62797;49.740;10.154;2023-02-10T06:37:56;133.18;;;46.60;;
74363;SDS011;62797;49.740;10.154;2023-02-10T06:40:22;134.68;;;50.72;;
74363;SDS011;62797;49.740;10.154;2023-02-10T06:42:47;127.97;;;49.55;;
74363;SDS011;62797;49.740;10.154;2023-02-10T06:45:13;118.30;;;46.75;;
74363;SDS011;62797;49.740;10.154;2023-02-10T06:47:39;118.15;;;44.80;;
74363;SDS011;62797;49.740;10.154;2023-02-10T06:50:04;124.32;;;46.95;;
74363;SDS011;62797;49.740;10.154;2023-02-10T06:52:31;110.65;;;44.97;;
74363;SDS011;62797;49.740;10.154;2023-02-10T06:54:59;108.00;;;41.90;;
74363;SDS011;62797;49.740;10.154;2023-02-10T06:57:25;136.50;;;53.15;;
74363;SDS011;62797;49.740;10.154;2023-02-10T06:59:50;136.20;;;53.80;;
74363;SDS011;62797;49.740;10.154;2023-02-10T07:02:17;118.75;;;50.08;;
74363;SDS011;62797;49.740;10.154;2023-02-10T07:04:43;130.35;;;52.88;;
74363;SDS011;62797;49.740;10.154;2023-02-10T07:07:08;117.90;;;49.60;;
74363;SDS011;62797;49.740;10.154;2023-02-10T07:09:34;109.60;;;45.47;;
74363;SDS011;62797;49.740;10.154;2023-02-10T07:12:00;140.07;;;53.42;;
74363;SDS011;62797;49.740;10.154;2023-02-10T07:14:25;124.82;;;52.20;;
74363;SDS011;62797;49.740;10.154;2023-02-10T07:16:51;124.78;;;53.28;;
74363;SDS011;62797;49.740;10.154;2023-02-10T07:19:16;141.20;;;55.20;;
74363;SDS011;62797;49.740;10.154;2023-02-10T07:21:42;125.55;;;54.63;;
74363;SDS011;62797;49.740;10.154;2023-02-10T07:24:08;125.22;;;50.95;;
74363;SDS011;62797;49.740;10.154;2023-02-10T07:26:33;141.23;;;59.70;;
74363;SDS011;62797;49.740;10.154;2023-02-10T07:28:59;127.53;;;54.03;;
74363;SDS011;62797;49.740;10.154;2023-02-10T07:31:25;106.97;;;46.80;;
74363;SDS011;62797;49.740;10.154;2023-02-10T07:33:51;108.38;;;43.65;;
74363;SDS011;62797;49.740;10.154;2023-02-10T07:36:16;121.85;;;50.25;;
74363;SDS011;62797;49.740;10.154;2023-02-10T07:38:42;114.90;;;49.72;;
74363;SDS011;62797;49.740;10.154;2023-02-10T07:41:07;121.18;;;52.78;;
74363;SDS011;62797;49.740;10.154;2023-02-10T07:43:33;124.25;;;52.28;;
74363;SDS011;62797;49.740;10.154;2023-02-10T07:45:59;126.03;;;49.88;;
74363;SDS011;62797;49.740;10.154;2023-02-10T07:48:25;113.57;;;46.92;;
74363;SDS011;62797;49.740;10.154;2023-02-10T07:50:51;110.05;;;48.97;;
74363;SDS011;62797;49.740;10.154;2023-02-10T07:55:43;103.88;;;42.70;;
74363;SDS011;62797;49.740;10.154;2023-02-10T07:58:09;101.65;;;40.28;;
74363;SDS011;62797;49.740;10.154;2023-02-10T08:00:35;97.75;;;40.78;;
74363;SDS011;62797;49.740;10.154;2023-02-10T08:03:01;90.90;;;40.30;;
74363;SDS011;62797;49.740;10.154;2023-02-10T08:05:27;94.90;;;42.75;;
74363;SDS011;62797;49.740;10.154;2023-02-10T08:07:54;104.93;;;43.53;;
74363;SDS011;62797;49.740;10.154;2023-02-10T08:10:20;93.50;;;40.47;;
74363;SDS011;62797;49.740;10.154;2023-02-10T08:12:46;94.78;;;40.40;;
74363;SDS011;62797;49.740;10.154;2023-02-10T08:15:11;94.32;;;39.85;;
74363;SDS011;62797;49.740;10.154;2023-02-10T08:17:37;87.93;;;37.42;;
74363;SDS011;62797;49.740;10.154;2023-02-10T08:22:32;106.53;;;43.05;;
74363;SDS011;62797;49.740;10.154;2023-02-10T08:24:59;89.55;;;40.90;;
74363;SDS011;62797;49.740;10.154;2023-02-10T08:27:25;93.90;;;39.47;;
74363;SDS011;62797;49.740;10.154;2023-02-10T08:29:50;96.07;;;40.73;;
74363;SDS011;62797;49.740;10.154;2023-02-10T08:32:16;121.37;;;42.73;;
74363;SDS011;62797;49.740;10.154;2023-02-10T08:34:44;108.70;;;40.13;;
74363;SDS011;62797;49.740;10.154;2023-02-10T08:37:11;110.85;;;43.60;;
74363;SDS011;62797;49.740;10.154;2023-02-10T08:39:37;100.25;;;42.55;;
74363;SDS011;62797;49.740;10.154;2023-02-10T08:42:02;89.30;;;38.93;;
74363;SDS011;62797;49.740;10.154;2023-02-10T08:44:28;98.50;;;43.97;;
74363;SDS011;62797;49.740;10.154;2023-02-10T08:46:54;85.82;;;38.83;;
74363;SDS011;62797;49.740;10.154;2023-02-10T08:49:20;91.27;;;40.03;;
74363;SDS011;62797;49.740;10.154;2023-02-10T08:51:49;89.47;;;37.50;;
74363;SDS011;62797;49.740;10.154;2023-02-10T08:54:15;83.00;;;37.05;;
74363;SDS011;62797;49.740;10.154;2023-02-10T08:56:40;87.37;;;36.87;;
74363;SDS011;62797;49.740;10.154;2023-02-10T08:59:06;94.10;;;38.73;;
74363;SDS011;62797;49.740;10.154;2023-02-10T09:01:31;96.97;;;39.73;;
74363;SDS011;62797;49.740;10.154;2023-02-10T09:03:57;98.32;;;39.70;;
74363;SDS011;62797;49.740;10.154;2023-02-10T09:06:27;95.67;;;37.00;;
74363;SDS011;62797;49.740;10.154;2023-02-10T09:09:03;88.35;;;38.53;;
74363;SDS011;62797;49.740;10.154;2023-02-10T09:11:32;85.97;;;38.15;;
74363;SDS011;62797;49.740;10.154;2023-02-10T09:13:58;86.87;;;38.13;;
74363;SDS011;62797;49.740;10.154;2023-02-10T09:16:23;83.30;;;38.47;;
74363;SDS011;62797;49.740;10.154;2023-02-10T09:18:49;88.38;;;39.50;;
74363;SDS011;62797;49.740;10.154;2023-02-10T09:21:14;82.22;;;34.45;;
74363;SDS011;62797;49.740;10.154;2023-02-10T09:23:40;89.38;;;37.45;;
74363;SDS011;62797;49.740;10.154;2023-02-10T09:26:06;92.00;;;40.83;;
74363;SDS011;62797;49.740;10.154;2023-02-10T09:28:31;97.07;;;40.50;;
74363;SDS011;62797;49.740;10.154;2023-02-10T09:30:57;82.37;;;35.93;;
74363;SDS011;62797;49.740;10.154;2023-02-10T09:33:22;89.40;;;38.57;;
74363;SDS011;62797;49.740;10.154;2023-02-10T09:35:48;81.90;;;37.58;;
74363;SDS011;62797;49.740;10.154;2023-02-10T09:38:14;79.23;;;36.17;;
74363;SDS011;62797;49.740;10.154;2023-02-10T09:40:46;101.83;;;44.20;;
74363;SDS011;62797;49.740;10.154;2023-02-10T09:43:24;92.53;;;40.88;;
74363;SDS011;62797;49.740;10.154;2023-02-10T10:07:34;91.60;;;39.55;;
74363;SDS011;62797;49.740;10.154;2023-02-10T10:10:04;102.28;;;43.20;;
74363;SDS011;62797;49.740;10.154;2023-02-10T10:12:41;91.22;;;40.65;;
74363;SDS011;62797;49.740;10.154;2023-02-10T10:25:57;99.35;;;43.97;;
74363;SDS011;62797;49.740;10.154;2023-02-10T10:31:42;88.78;;;40.45;;
74363;SDS011;62797;49.740;10.154;2023-02-10T10:34:12;86.68;;;39.33;;
74363;SDS011;62797;49.740;10.154;2023-02-10T10:36:43;86.55;;;38.00;;
74363;SDS011;62797;49.740;10.154;2023-02-10T10:41:43;94.28;;;40.10;;
74363;SDS011;62797;49.740;10.154;2023-02-10T10:44:10;94.72;;;40.13;;
74363;SDS011;62797;49.740;10.154;2023-02-10T10:46:43;87.72;;;38.67;;
74363;SDS011;62797;49.740;10.154;2023-02-10T10:49:10;90.25;;;39.58;;
74363;SDS011;62797;49.740;10.154;2023-02-10T10:51:36;95.32;;;40.47;;
74363;SDS011;62797;49.740;10.154;2023-02-10T10:56:34;97.10;;;43.35;;
74363;SDS011;62797;49.740;10.154;2023-02-10T11:02:11;89.65;;;38.60;;
74363;SDS011;62797;49.740;10.154;2023-02-10T11:04:38;83.63;;;34.10;;
74363;SDS011;62797;49.740;10.154;2023-02-10T11:07:09;87.28;;;38.35;;
74363;SDS011;62797;49.740;10.154;2023-02-10T11:09:38;93.53;;;40.67;;
74363;SDS011;62797;49.740;10.154;2023-02-10T11:14:47;94.70;;;42.53;;
74363;SDS011;62797;49.740;10.154;2023-02-10T11:22:36;80.88;;;36.50;;
74363;SDS011;62797;49.740;10.154;2023-02-10T11:25:03;82.47;;;38.15;;
74363;SDS011;62797;49.740;10.154;2023-02-10T11:27:58;80.68;;;38.05;;
74363;SDS011;62797;49.740;10.154;2023-02-10T11:30:30;86.65;;;37.40;;
74363;SDS011;62797;49.740;10.154;2023-02-10T11:33:01;80.57;;;35.08;;
74363;SDS011;62797;49.740;10.154;2023-02-10T11:37:51;79.15;;;36.92;;
74363;SDS011;62797;49.740;10.154;2023-02-10T11:40:29;79.00;;;36.40;;
74363;SDS011;62797;49.740;10.154;2023-02-10T11:43:13;88.70;;;38.85;;
74363;SDS011;62797;49.740;10.154;2023-02-10T11:45:50;79.97;;;38.38;;
74363;SDS011;62797;49.740;10.154;2023-02-10T11:48:23;86.18;;;36.10;;
74363;SDS011;62797;49.740;10.154;2023-02-10T11:51:05;85.55;;;37.35;;
74363;SDS011;62797;49.740;10.154;2023-02-10T11:53:37;82.70;;;36.33;;
74363;SDS011;62797;49.740;10.154;2023-02-10T11:56:11;83.80;;;37.17;;
74363;SDS011;62797;49.740;10.154;2023-02-10T11:59:27;84.40;;;36.55;;
74363;SDS011;62797;49.740;10.154;2023-02-10T12:09:47;93.18;;;39.65;;
74363;SDS011;62797;49.740;10.154;2023-02-10T12:18:27;90.63;;;38.58;;
74363;SDS011;62797;49.740;10.154;2023-02-10T12:21:12;87.75;;;38.97;;
74363;SDS011;62797;49.740;10.154;2023-02-10T12:27:00;82.45;;;36.53;;
74363;SDS011;62797;49.740;10.154;2023-02-10T12:32:26;95.90;;;39.53;;
74363;SDS011;62797;49.740;10.154;2023-02-10T12:35:11;87.50;;;40.08;;
74363;SDS011;62797;49.740;10.154;2023-02-10T12:46:01;96.57;;;37.53;;
74363;SDS011;62797;49.740;10.154;2023-02-10T12:48:48;87.97;;;37.80;;
74363;SDS011;62797;49.740;10.154;2023-02-10T12:56:51;81.72;;;37.08;;
74363;SDS011;62797;49.740;10.154;2023-02-10T12:59:24;99.43;;;40.72;;
74363;SDS011;62797;49.740;10.154;2023-02-10T13:02:05;77.50;;;36.63;;
74363;SDS011;62797;49.740;10.154;2023-02-10T13:07:42;89.25;;;36.85;;
74363;SDS011;62797;49.740;10.154;2023-02-10T13:10:29;81.00;;;36.28;;
74363;SDS011;62797;49.740;10.154;2023-02-10T13:13:00;82.97;;;37.72;;
74363;SDS011;62797;49.740;10.154;2023-02-10T13:15:40;78.65;;;36.92;;
74363;SDS011;62797;49.740;10.154;2023-02-10T13:18:30;77.00;;;36.55;;
74363;SDS011;62797;49.740;10.154;2023-02-10T13:26:23;78.30;;;35.97;;
74363;SDS011;62797;49.740;10.154;2023-02-10T13:29:15;80.50;;;38.13;;
74363;SDS011;62797;49.740;10.154;2023-02-10T13:32:02;80.85;;;36.65;;
74363;SDS011;62797;49.740;10.154;2023-02-10T13:34:41;80.80;;;36.40;;
74363;SDS011;62797;49.740;10.154;2023-02-10T13:37:16;78.67;;;38.60;;
74363;SDS011;62797;49.740;10.154;2023-02-10T13:39:57;79.85;;;37.50;;
74363;SDS011;62797;49.740;10.154;2023-02-10T13:42:31;71.68;;;33.72;;
74363;SDS011;62797;49.740;10.154;2023-02-10T13:45:20;79.38;;;35.78;;
74363;SDS011;62797;49.740;10.154;2023-02-10T13:47:48;76.03;;;36.35;;
74363;SDS011;62797;49.740;10.154;2023-02-10T13:50:23;78.10;;;36.28;;
74363;SDS011;62797;49.740;10.154;2023-02-10T13:53:23;83.88;;;39.08;;
74363;SDS011;62797;49.740;10.154;2023-02-10T13:58:51;79.68;;;37.30;;
74363;SDS011;62797;49.740;10.154;2023-02-10T14:01:34;75.20;;;38.90;;
74363;SDS011;62797;49.740;10.154;2023-02-10T14:06:42;78.13;;;34.60;;
74363;SDS011;62797;49.740;10.154;2023-02-10T14:11:53;83.68;;;40.40;;
74363;SDS011;62797;49.740;10.154;2023-02-10T14:14:53;75.68;;;35.50;;
74363;SDS011;62797;49.740;10.154;2023-02-10T14:19:41;82.35;;;37.75;;
74363;SDS011;62797;49.740;10.154;2023-02-10T14:27:48;75.00;;;34.40;;
74363;SDS011;62797;49.740;10.154;2023-02-10T14:30:18;69.30;;;33.97;;
74363;SDS011;62797;49.740;10.154;2023-02-10T14:32:46;72.03;;;33.88;;
74363;SDS011;62797;49.740;10.154;2023-02-10T14:35:19;75.53;;;33.00;;
74363;SDS011;62797;49.740;10.154;2023-02-10T14:37:50;72.20;;;35.17;;
74363;SDS011;62797;49.740;10.154;2023-02-10T14:40:19;78.15;;;34.42;;
74363;SDS011;62797;49.740;10.154;2023-02-10T14:42:46;83.72;;;37.55;;
74363;SDS011;62797;49.740;10.154;2023-02-10T14:45:22;75.10;;;34.45;;
74363;SDS011;62797;49.740;10.154;2023-02-10T14:47:51;78.78;;;34.90;;
74363;SDS011;62797;49.740;10.154;2023-02-10T14:50:22;75.47;;;38.25;;
74363;SDS011;62797;49.740;10.154;2023-02-10T14:52:59;74.78;;;36.85;;
74363;SDS011;62797;49.740;10.154;2023-02-10T14:55:31;76.82;;;34.50;;
74363;SDS011;62797;49.740;10.154;2023-02-10T14:58:12;76.40;;;38.40;;
74363;SDS011;62797;49.740;10.154;2023-02-10T15:00:52;88.05;;;38.20;;
74363;SDS011;62797;49.740;10.154;2023-02-10T15:03:33;69.72;;;32.95;;
74363;SDS011;62797;49.740;10.154;2023-02-10T15:05:58;71.47;;;34.57;;
74363;SDS011;62797;49.740;10.154;2023-02-10T15:08:47;79.28;;;39.22;;
74363;SDS011;62797;49.740;10.154;2023-02-10T15:11:24;81.97;;;35.40;;
74363;SDS011;62797;49.740;10.154;2023-02-10T15:14:18;81.93;;;35.05;;
74363;SDS011;62797;49.740;10.154;2023-02-10T15:16:53;67.53;;;30.83;;
74363;SDS011;62797;49.740;10.154;2023-02-10T15:19:23;85.05;;;33.40;;
74363;SDS011;62797;49.740;10.154;2023-02-10T15:21:49;82.63;;;35.97;;
74363;SDS011;62797;49.740;10.154;2023-02-10T15:24:27;77.18;;;35.72;;
74363;SDS011;62797;49.740;10.154;2023-02-10T15:26:55;80.15;;;32.22;;
74363;SDS011;62797;49.740;10.154;2023-02-10T15:29:35;63.97;;;31.38;;
74363;SDS011;62797;49.740;10.154;2023-02-10T15:32:02;70.30;;;32.00;;
74363;SDS011;62797;49.740;10.154;2023-02-10T15:34:30;67.22;;;30.83;;
74363;SDS011;62797;49.740;10.154;2023-02-10T15:39:31;64.43;;;30.20;;
74363;SDS011;62797;49.740;10.154;2023-02-10T15:44:39;68.78;;;31.42;;
74363;SDS011;62797;49.740;10.154;2023-02-10T15:49:42;78.90;;;32.53;;
74363;SDS011;62797;49.740;10.154;2023-02-10T15:52:10;78.00;;;34.13;;
74363;SDS011;62797;49.740;10.154;2023-02-10T15:55:09;80.68;;;35.30;;
74363;SDS011;62797;49.740;10.154;2023-02-10T15:57:43;83.20;;;34.83;;
74363;SDS011;62797;49.740;10.154;2023-02-10T16:00:11;88.67;;;37.70;;
74363;SDS011;62797;49.740;10.154;2023-02-10T16:02:59;86.57;;;37.10;;
74363;SDS011;62797;49.740;10.154;2023-02-10T16:05:26;86.60;;;36.40;;
74363;SDS011;62797;49.740;10.154;2023-02-10T16:07:52;86.28;;;36.70;;
74363;SDS011;62797;49.740;10.154;2023-02-10T16:10:24;85.65;;;36.05;;
74363;SDS011;62797;49.740;10.154;2023-02-10T16:12:50;87.68;;;38.33;;
74363;SDS011;62797;49.740;10.154;2023-02-10T16:15:18;86.25;;;38.45;;
74363;SDS011;62797;49.740;10.154;2023-02-10T16:17:46;89.88;;;37.08;;
74363;SDS011;62797;49.740;10.154;2023-02-10T16:20:25;98.82;;;37.67;;
74363;SDS011;62797;49.740;10.154;2023-02-10T16:22:52;89.75;;;38.42;;
74363;SDS011;62797;49.740;10.154;2023-02-10T16:25:19;93.43;;;40.38;;
74363;SDS011;62797;49.740;10.154;2023-02-10T16:27:47;92.80;;;39.75;;
74363;SDS011;62797;49.740;10.154;2023-02-10T16:30:17;101.33;;;38.20;;
74363;SDS011;62797;49.740;10.154;2023-02-10T16:32:51;98.05;;;40.70;;
74363;SDS011;62797;49.740;10.154;2023-02-10T16:37:43;108.45;;;41.08;;
74363;SDS011;62797;49.740;10.154;2023-02-10T16:40:19;91.88;;;37.22;;
74363;SDS011;62797;49.740;10.154;2023-02-10T16:42:47;103.18;;;44.80;;
74363;SDS011;62797;49.740;10.154;2023-02-10T16:45:13;109.32;;;45.28;;
74363;SDS011;62797;49.740;10.154;2023-02-10T16:47:39;100.28;;;42.40;;
74363;SDS011;62797;49.740;10.154;2023-02-10T16:50:04;110.03;;;43.07;;
74363;SDS011;62797;49.740;10.154;2023-02-10T16:52:31;104.03;;;44.13;;
74363;SDS011;62797;49.740;10.154;2023-02-10T16:54:56;102.77;;;45.30;;
74363;SDS011;62797;49.740;10.154;2023-02-10T16:57:22;93.77;;;41.20;;
74363;SDS011;62797;49.740;10.154;2023-02-10T16:59:48;99.20;;;44.83;;
74363;SDS011;62797;49.740;10.154;2023-02-10T17:02:14;99.60;;;42.28;;